createdAt,value
2019-06-27T00:00:25.751Z,9.30
2019-06-27T00:02:55.747Z,8.60
2019-06-27T00:05:25.553Z,8.50
2019-06-27T00:07:55.618Z,8.40
2019-06-27T00:10:25.423Z,8.77
2019-06-27T00:12:55.085Z,8.43
2019-06-27T00:15:25.082Z,8.10
2019-06-27T00:17:54.746Z,8.20
2019-06-27T00:20:24.401Z,8.20
2019-06-27T00:22:54.419Z,8.33
2019-06-27T00:25:24.431Z,7.93
2019-06-27T00:27:54.446Z,8.43
2019-06-27T00:30:24.099Z,8.03
2019-06-27T00:32:53.762Z,7.27
2019-06-27T00:35:23.418Z,8.07
2019-06-27T00:37:53.506Z,7.67
2019-06-27T00:40:23.167Z,8.30
2019-06-27T00:42:52.839Z,7.50
2019-06-27T00:45:23.128Z,7.73
2019-06-27T00:47:52.871Z,7.17
2019-06-27T00:50:22.573Z,7.70
2019-06-27T00:52:52.305Z,7.97
2019-06-27T00:55:21.959Z,7.57
2019-06-27T00:57:52.036Z,6.93
2019-06-27T01:00:22.061Z,7.20
2019-06-27T01:02:52.134Z,7.30
2019-06-27T01:05:22.147Z,6.93
2019-06-27T01:07:52.251Z,6.80
2019-06-27T01:10:21.992Z,6.40
2019-06-27T01:12:51.660Z,7.50
2019-06-27T01:15:21.483Z,7.60
2019-06-27T01:17:51.135Z,7.43
2019-06-27T01:20:20.822Z,6.90
2019-06-27T01:22:50.763Z,7.40
2019-06-27T01:25:20.494Z,6.77
2019-06-27T01:27:50.231Z,7.17
2019-06-27T01:30:21.155Z,6.67
2019-06-27T01:32:50.903Z,7.00
2019-06-27T01:35:20.554Z,6.40
2019-06-27T01:37:50.265Z,6.50
2019-06-27T01:40:20.433Z,6.23
2019-06-27T01:42:50.099Z,5.73
2019-06-27T01:45:25.615Z,5.90
2019-06-27T01:47:55.307Z,5.53
2019-06-27T01:50:25.047Z,5.73
2019-06-27T01:52:54.708Z,5.40
2019-06-27T01:55:24.708Z,4.90
2019-06-27T01:57:54.733Z,4.43
2019-06-27T02:00:24.948Z,4.57
2019-06-27T02:02:54.631Z,4.03
2019-06-27T02:05:24.776Z,4.17
2019-06-27T02:07:54.712Z,3.90
2019-06-27T02:10:24.802Z,4.40
2019-06-27T02:12:54.820Z,4.37
2019-06-27T02:15:24.740Z,3.80
2019-06-27T02:17:54.468Z,4.27
2019-06-27T02:20:24.782Z,3.63
2019-06-27T02:22:54.431Z,3.63
2019-06-27T02:25:25.249Z,3.47
2019-06-27T02:28:03.726Z,3.60
2019-06-27T02:30:37.338Z,3.97
2019-06-27T02:33:07.140Z,3.67
2019-06-27T02:35:37.073Z,3.30
2019-06-27T02:38:07.462Z,3.43
2019-06-27T02:40:37.207Z,3.07
2019-06-27T02:43:07.206Z,3.27
2019-06-27T02:45:36.957Z,2.40
2019-06-27T02:48:07.060Z,2.40
2019-06-27T02:50:36.731Z,2.60
2019-06-27T02:53:06.456Z,2.30
2019-06-27T02:55:36.121Z,2.37
2019-06-27T02:58:27.780Z,2.63
2019-06-27T03:00:37.642Z,2.67
2019-06-27T03:03:07.546Z,2.60
2019-06-27T03:05:37.658Z,2.40
2019-06-27T03:08:08.433Z,2.60
2019-06-27T03:10:38.683Z,2.57
2019-06-27T03:13:08.340Z,2.80
2019-06-27T03:15:38.176Z,2.73
2019-06-27T03:18:07.836Z,3.23
2019-06-27T03:20:37.859Z,3.10
2019-06-27T03:23:07.598Z,3.03
2019-06-27T03:25:37.270Z,3.43
2019-06-27T03:28:07.891Z,2.80
2019-06-27T03:30:37.857Z,2.93
2019-06-27T03:33:08.874Z,3.20
2019-06-27T03:35:38.617Z,2.87
2019-06-27T03:38:08.968Z,3.50
2019-06-27T03:40:38.622Z,3.10
2019-06-27T03:43:08.379Z,3.70
2019-06-27T03:45:38.043Z,3.30
2019-06-27T03:48:07.702Z,3.27
2019-06-27T03:50:37.369Z,3.80
2019-06-27T03:53:07.101Z,3.87
2019-06-27T03:55:36.896Z,3.43
2019-06-27T03:58:06.529Z,3.40
2019-06-27T04:00:36.359Z,3.70
2019-06-27T04:03:06.027Z,3.93
2019-06-27T04:05:35.685Z,3.87
2019-06-27T04:08:05.360Z,4.20
2019-06-27T04:10:35.422Z,4.63
2019-06-27T04:13:05.396Z,4.37
2019-06-27T04:15:35.254Z,4.80
2019-06-27T04:18:04.986Z,5.40
2019-06-27T04:20:34.668Z,4.87
2019-06-27T04:23:04.413Z,5.80
2019-06-27T04:25:34.320Z,5.47
2019-06-27T04:28:04.061Z,5.23
2019-06-27T04:30:33.729Z,6.10
2019-06-27T04:33:03.408Z,6.30
2019-06-27T04:35:33.175Z,5.27
2019-06-27T04:38:02.850Z,5.33
2019-06-27T04:40:32.498Z,6.00
2019-06-27T04:43:05.853Z,5.80
2019-06-27T04:45:33.825Z,5.90
2019-06-27T04:48:03.514Z,6.60
2019-06-27T04:50:33.175Z,6.03
2019-06-27T04:53:02.849Z,6.03
2019-06-27T04:55:32.710Z,5.80
2019-06-27T04:58:02.386Z,7.03
2019-06-27T05:00:32.595Z,7.13
2019-06-27T05:03:02.262Z,6.53
2019-06-27T05:05:32.286Z,7.20
2019-06-27T05:08:01.970Z,7.37
2019-06-27T05:10:31.737Z,6.57
2019-06-27T05:13:01.640Z,6.90
2019-06-27T05:15:31.417Z,7.13
2019-06-27T05:18:01.169Z,7.17
2019-06-27T05:20:30.830Z,6.90
2019-06-27T05:23:00.576Z,6.77
2019-06-27T05:25:30.578Z,7.33
2019-06-27T05:28:00.258Z,7.53
2019-06-27T05:30:29.984Z,7.13
2019-06-27T05:32:59.656Z,7.20
2019-06-27T05:35:29.316Z,7.47
2019-06-27T05:37:59.327Z,6.73
2019-06-27T05:40:28.994Z,7.33
2019-06-27T05:42:58.672Z,6.93
2019-06-27T05:45:28.339Z,7.20
2019-06-27T05:47:58.015Z,7.07
2019-06-27T05:50:29.615Z,7.27
2019-06-27T05:52:59.279Z,6.73
2019-06-27T05:55:28.948Z,6.90
2019-06-27T05:57:58.621Z,6.37
2019-06-27T06:00:29.676Z,6.63
2019-06-27T06:02:59.577Z,7.17
2019-06-27T06:05:29.309Z,7.17
2019-06-27T06:07:59.354Z,6.83
2019-06-27T06:10:29.000Z,7.73
2019-06-27T06:12:58.656Z,7.57
2019-06-27T06:15:28.559Z,6.97
2019-06-27T06:17:58.229Z,6.63
2019-06-27T06:20:27.892Z,6.20
2019-06-27T06:22:57.567Z,6.60
2019-06-27T06:25:27.220Z,6.40
2019-06-27T06:27:56.906Z,6.63
2019-06-27T06:30:42.784Z,6.40
2019-06-27T06:32:58.377Z,6.73
2019-06-27T06:35:28.031Z,6.80
2019-06-27T06:37:57.713Z,6.20
2019-06-27T06:40:27.397Z,7.07
2019-06-27T06:43:00.408Z,6.73
2019-06-27T06:45:28.812Z,6.10
2019-06-27T06:47:58.483Z,6.30
2019-06-27T06:50:28.418Z,6.43
2019-06-27T06:52:58.166Z,5.53
2019-06-27T06:55:27.825Z,5.47
2019-06-27T06:57:57.503Z,6.20
2019-06-27T07:00:27.894Z,7.20
2019-06-27T07:02:58.011Z,6.60
2019-06-27T07:05:27.735Z,5.63
2019-06-27T07:07:57.414Z,5.90
2019-06-27T07:10:27.076Z,4.93
2019-06-27T07:12:56.734Z,4.50
2019-06-27T07:15:26.442Z,5.73
2019-06-27T07:17:56.169Z,5.57
2019-06-27T07:20:25.830Z,4.80
2019-06-27T07:22:55.616Z,4.77
2019-06-27T07:25:25.281Z,4.50
2019-06-27T07:27:54.939Z,4.33
2019-06-27T07:30:25.685Z,4.13
2019-06-27T07:32:55.418Z,4.47
2019-06-27T07:35:25.157Z,4.73
2019-06-27T07:37:54.849Z,4.70
2019-06-27T07:40:24.595Z,4.70
2019-06-27T07:42:54.265Z,3.63
2019-06-27T07:45:24.018Z,3.77
2019-06-27T07:47:53.670Z,4.80
2019-06-27T07:50:23.726Z,3.50
2019-06-27T07:52:53.382Z,3.93
2019-06-27T07:55:24.605Z,4.17
2019-06-27T07:57:54.279Z,4.23
2019-06-27T08:00:25.068Z,4.17
2019-06-27T08:02:55.053Z,4.17
2019-06-27T08:05:24.738Z,4.13
2019-06-27T08:07:54.670Z,3.97
2019-06-27T08:10:24.406Z,4.30
2019-06-27T08:12:54.135Z,4.90
2019-06-27T08:15:23.895Z,4.70
2019-06-27T08:17:53.834Z,4.90
2019-06-27T08:20:23.510Z,4.50
2019-06-27T08:22:53.179Z,4.53
2019-06-27T08:25:22.993Z,4.50
2019-06-27T08:27:53.270Z,4.33
2019-06-27T08:30:23.182Z,4.73
2019-06-27T08:32:53.144Z,5.03
2019-06-27T08:35:22.808Z,4.37
2019-06-27T08:37:52.807Z,3.93
2019-06-27T08:40:22.729Z,2.87
2019-06-27T08:42:53.660Z,3.70
2019-06-27T08:45:23.353Z,3.97
2019-06-27T08:47:53.002Z,3.33
2019-06-27T08:50:22.712Z,3.60
2019-06-27T08:52:52.453Z,3.10
2019-06-27T08:55:22.097Z,3.23
2019-06-27T08:57:51.836Z,2.50
2019-06-27T09:00:21.569Z,2.50
2019-06-27T09:02:51.371Z,1.67
2019-06-27T09:05:21.091Z,2.40
2019-06-27T09:07:50.739Z,1.97
2019-06-27T09:10:20.870Z,2.10
2019-06-27T09:12:50.639Z,2.20
2019-06-27T09:15:20.531Z,2.10
2019-06-27T09:17:50.212Z,2.50
2019-06-27T09:20:20.247Z,2.03
2019-06-27T09:22:49.915Z,1.77
2019-06-27T09:25:19.688Z,1.57
2019-06-27T09:27:49.432Z,1.23
2019-06-27T09:30:19.231Z,1.50
2019-06-27T09:32:48.899Z,1.50
2019-06-27T09:35:18.979Z,1.30
2019-06-27T09:37:48.717Z,1.90
2019-06-27T09:40:20.264Z,1.73
2019-06-27T09:42:50.007Z,1.97
2019-06-27T09:45:21.405Z,1.80
2019-06-27T09:47:51.193Z,2.00
2019-06-27T09:50:22.219Z,1.73
2019-06-27T09:52:52.169Z,1.40
2019-06-27T09:55:22.004Z,2.07
2019-06-27T09:57:51.763Z,1.53
2019-06-27T10:00:23.311Z,1.90
2019-06-27T10:02:53.129Z,1.90
2019-06-27T10:05:22.783Z,2.13
2019-06-27T10:07:53.078Z,1.77
2019-06-27T10:10:23.198Z,1.53
2019-06-27T10:12:52.950Z,1.73
2019-06-27T10:15:22.685Z,1.50
2019-06-27T10:17:52.353Z,2.00
2019-06-27T10:20:22.209Z,1.30
2019-06-27T10:22:51.954Z,1.63
2019-06-27T10:25:21.981Z,1.87
2019-06-27T10:27:52.000Z,1.63
2019-06-27T10:30:23.130Z,1.77
2019-06-27T10:32:59.250Z,1.43
2019-06-27T10:35:24.681Z,1.40
2019-06-27T10:37:54.347Z,1.27
2019-06-27T10:40:24.950Z,1.20
2019-06-27T10:42:54.628Z,1.20
2019-06-27T10:45:24.658Z,1.17
2019-06-27T10:47:54.315Z,1.30
2019-06-27T10:50:24.045Z,0.97
2019-06-27T10:52:53.712Z,1.37
2019-06-27T10:55:23.412Z,1.27
2019-06-27T10:57:53.402Z,1.40
2019-06-27T11:00:24.172Z,1.20
2019-06-27T11:02:53.843Z,1.23
2019-06-27T11:05:23.529Z,1.30
2019-06-27T11:07:53.222Z,1.53
2019-06-27T11:10:22.859Z,1.23
2019-06-27T11:12:52.588Z,1.17
2019-06-27T11:15:22.382Z,1.10
2019-06-27T11:17:52.102Z,1.83
2019-06-27T11:20:21.901Z,1.47
2019-06-27T11:22:51.802Z,1.57
2019-06-27T11:25:21.437Z,1.53
2019-06-27T11:27:51.113Z,1.50
2019-06-27T11:30:21.473Z,1.10
2019-06-27T11:32:51.476Z,1.50
2019-06-27T11:35:21.131Z,1.27
2019-06-27T11:37:51.141Z,1.37
2019-06-27T11:40:21.180Z,1.50
2019-06-27T11:42:51.353Z,1.20
2019-06-27T11:45:21.384Z,1.40
2019-06-27T11:47:51.492Z,1.50
2019-06-27T11:50:21.310Z,1.20
2019-06-27T11:52:50.981Z,1.67
2019-06-27T11:55:20.640Z,1.20
2019-06-27T11:57:50.309Z,1.23
2019-06-27T12:00:20.607Z,1.13
2019-06-27T12:02:50.283Z,1.30
2019-06-27T12:05:19.943Z,1.30
2019-06-27T12:07:49.678Z,1.13
2019-06-27T12:10:20.779Z,1.23
2019-06-27T12:12:50.749Z,1.30
2019-06-27T12:15:20.481Z,1.40
2019-06-27T12:17:50.234Z,1.50
2019-06-27T12:20:20.169Z,1.20
2019-06-27T12:22:49.977Z,1.33
2019-06-27T12:25:19.779Z,1.43
2019-06-27T12:27:49.541Z,1.53
2019-06-27T12:30:19.542Z,1.20
2019-06-27T12:32:52.502Z,1.07
2019-06-27T12:35:20.943Z,1.63
2019-06-27T12:37:50.619Z,1.40
2019-06-27T12:40:20.938Z,1.13
2019-06-27T12:42:50.687Z,1.33
2019-06-27T12:45:20.849Z,1.17
2019-06-27T12:47:50.934Z,1.50
2019-06-27T12:50:21.578Z,1.27
2019-06-27T12:52:51.225Z,1.20
2019-06-27T12:55:21.002Z,1.50
2019-06-27T12:57:50.659Z,2.03
2019-06-27T13:00:20.781Z,1.27
2019-06-27T13:02:50.827Z,1.10
2019-06-27T13:05:20.855Z,1.13
2019-06-27T13:07:50.670Z,1.00
2019-06-27T13:10:21.896Z,1.13
2019-06-27T13:12:51.626Z,1.47
2019-06-27T13:15:21.312Z,1.07
2019-06-27T13:17:51.353Z,1.33
2019-06-27T13:20:21.169Z,1.43
2019-06-27T13:22:50.840Z,1.20
2019-06-27T13:25:20.585Z,1.07
2019-06-27T13:27:50.318Z,0.97
2019-06-27T13:30:20.683Z,1.03
2019-06-27T13:32:50.348Z,1.00
2019-06-27T13:35:20.009Z,1.10
2019-06-27T13:37:50.039Z,1.10
2019-06-27T13:40:20.455Z,0.90
2019-06-27T13:42:50.135Z,1.50
2019-06-27T13:45:21.101Z,0.97
2019-06-27T13:47:50.777Z,1.30
2019-06-27T13:50:20.510Z,1.20
2019-06-27T13:52:50.224Z,1.10
2019-06-27T13:55:23.789Z,1.20
2019-06-27T13:57:51.280Z,1.03
2019-06-27T14:00:32.016Z,1.10
2019-06-27T14:03:02.047Z,1.27
2019-06-27T14:05:31.710Z,1.20
2019-06-27T14:08:01.365Z,1.10
2019-06-27T14:10:32.166Z,1.20
2019-06-27T14:13:01.829Z,1.27
2019-06-27T14:15:31.943Z,1.37
2019-06-27T14:18:08.623Z,1.00
2019-06-27T14:20:38.631Z,1.30
2019-06-27T14:23:08.743Z,1.17
2019-06-27T14:25:38.686Z,1.07
2019-06-27T14:28:08.376Z,1.30
2019-06-27T14:30:38.389Z,1.10
2019-06-27T14:33:08.046Z,1.30
2019-06-27T14:35:37.712Z,1.00
2019-06-27T14:38:07.382Z,1.37
2019-06-27T14:40:37.148Z,1.20
2019-06-27T14:43:06.794Z,1.10
2019-06-27T14:45:36.472Z,1.53
2019-06-27T14:48:06.320Z,1.30
2019-06-27T14:50:36.728Z,1.43
2019-06-27T14:53:06.393Z,1.00
2019-06-27T14:55:36.401Z,1.20
2019-06-27T14:58:07.460Z,1.10
2019-06-27T15:00:39.157Z,1.20
2019-06-27T15:03:08.813Z,1.23
2019-06-27T15:05:38.734Z,1.37
2019-06-27T15:08:08.453Z,1.40
2019-06-27T15:10:38.548Z,1.33
2019-06-27T15:13:08.217Z,1.40
2019-06-27T15:15:37.893Z,1.20
2019-06-27T15:18:07.626Z,1.30
2019-06-27T15:20:37.388Z,1.30
2019-06-27T15:23:07.120Z,1.37
2019-06-27T15:25:37.136Z,1.13
2019-06-27T15:28:06.845Z,1.50
2019-06-27T15:30:36.603Z,1.40
2019-06-27T15:33:06.524Z,1.20
2019-06-27T15:35:47.838Z,1.47
2019-06-27T15:38:08.018Z,1.23
2019-06-27T15:40:37.710Z,1.57
2019-06-27T15:43:07.366Z,1.20
2019-06-27T15:45:37.184Z,1.00
2019-06-27T15:48:06.848Z,1.20
2019-06-27T15:50:36.496Z,1.43
2019-06-27T15:53:06.176Z,1.10
2019-06-27T15:55:35.905Z,0.80
2019-06-27T15:58:05.641Z,1.03
2019-06-27T16:00:39.204Z,1.10
2019-06-27T16:03:07.037Z,1.10
2019-06-27T16:05:36.767Z,1.10
2019-06-27T16:08:06.670Z,1.10
2019-06-27T16:10:36.681Z,1.10
2019-06-27T16:13:06.344Z,0.90
2019-06-27T16:15:36.085Z,1.13
2019-06-27T16:18:05.761Z,1.10
2019-06-27T16:20:35.509Z,1.10
2019-06-27T16:23:05.164Z,1.27
2019-06-27T16:25:34.815Z,1.53
2019-06-27T16:28:04.654Z,1.40
2019-06-27T16:30:34.447Z,1.80
2019-06-27T16:33:04.170Z,2.70
2019-06-27T16:35:33.771Z,3.53
2019-06-27T16:38:03.438Z,6.50
2019-06-27T16:40:33.112Z,6.63
2019-06-27T16:43:02.846Z,8.63
2019-06-27T16:45:32.598Z,7.60
2019-06-27T16:48:02.269Z,6.80
2019-06-27T16:50:32.013Z,7.43
2019-06-27T16:53:01.683Z,9.47
2019-06-27T16:55:31.647Z,9.27
2019-06-27T16:58:01.671Z,6.60
2019-06-27T17:00:31.406Z,5.50
2019-06-27T17:03:01.152Z,3.33
2019-06-27T17:05:30.807Z,3.10
2019-06-27T17:08:00.484Z,2.80
2019-06-27T17:10:31.476Z,1.70
2019-06-27T17:13:01.181Z,1.37
2019-06-27T17:15:30.882Z,1.20
2019-06-27T17:18:00.512Z,1.50
2019-06-27T17:20:30.171Z,1.30
2019-06-27T17:22:59.844Z,0.93
2019-06-27T17:25:29.794Z,1.30
2019-06-27T17:27:59.457Z,1.20
2019-06-27T17:30:29.361Z,1.20
2019-06-27T17:32:59.063Z,1.63
2019-06-27T17:35:28.789Z,1.20
2019-06-27T17:37:58.541Z,1.17
2019-06-27T17:40:28.467Z,1.70
2019-06-27T17:42:58.139Z,1.10
2019-06-27T17:45:27.913Z,1.20
2019-06-27T17:47:57.725Z,1.40
2019-06-27T17:50:27.453Z,1.37
2019-06-27T17:52:57.151Z,1.30
2019-06-27T17:55:26.816Z,1.17
2019-06-27T17:57:56.831Z,1.47
2019-06-27T18:00:26.589Z,1.57
2019-06-27T18:02:56.387Z,1.20
2019-06-27T18:05:26.362Z,1.00
2019-06-27T18:07:56.027Z,1.37
2019-06-27T18:10:25.690Z,1.37
2019-06-27T18:12:55.393Z,1.50
2019-06-27T18:15:26.252Z,1.47
2019-06-27T18:17:55.926Z,1.20
2019-06-27T18:20:25.594Z,1.40
2019-06-27T18:22:55.284Z,1.53
2019-06-27T18:25:25.292Z,1.27
2019-06-27T18:27:54.987Z,1.27
2019-06-27T18:30:24.815Z,1.30
2019-06-27T18:32:54.906Z,1.50
2019-06-27T18:35:24.563Z,1.20
2019-06-27T18:37:54.831Z,1.50
2019-06-27T18:40:24.827Z,1.40
2019-06-27T18:42:54.501Z,1.20
2019-06-27T18:45:24.181Z,1.80
2019-06-27T18:47:54.155Z,1.40
2019-06-27T18:50:23.809Z,1.10
2019-06-27T18:52:53.566Z,1.30
2019-06-27T18:55:23.719Z,1.50
2019-06-27T18:57:53.729Z,1.40
2019-06-27T19:00:24.054Z,1.27
2019-06-27T19:02:54.071Z,1.77
2019-06-27T19:05:23.733Z,1.57
2019-06-27T19:07:53.409Z,1.33
2019-06-27T19:10:23.232Z,1.37
2019-06-27T19:12:53.622Z,1.97
2019-06-27T19:15:23.349Z,1.63
2019-06-27T19:17:53.023Z,1.90
2019-06-27T19:20:37.588Z,1.63
2019-06-27T19:23:26.298Z,2.17
2019-06-27T19:25:58.621Z,1.27
2019-06-27T19:28:28.554Z,1.53
2019-06-27T19:30:58.875Z,1.53
2019-06-27T19:33:28.554Z,1.40
2019-06-27T19:35:58.219Z,1.70
2019-06-27T19:38:27.987Z,1.70
2019-06-27T19:40:57.647Z,1.70
2019-06-27T19:43:28.442Z,1.60
2019-06-27T19:45:58.232Z,1.80
2019-06-27T19:48:28.878Z,1.50
2019-06-27T19:50:58.893Z,1.63
2019-06-27T19:53:28.569Z,1.90
2019-06-27T19:55:58.632Z,1.70
2019-06-27T19:58:28.299Z,1.67
2019-06-27T20:00:58.025Z,1.70
2019-06-27T20:03:27.692Z,1.90
2019-06-27T20:05:57.951Z,1.60
2019-06-27T20:08:27.714Z,1.90
2019-06-27T20:10:57.411Z,1.60
2019-06-27T20:13:27.396Z,1.80
2019-06-27T20:15:58.320Z,1.90
2019-06-27T20:18:28.493Z,1.83
2019-06-27T20:20:58.466Z,2.43
2019-06-27T20:23:28.704Z,2.10
2019-06-27T20:25:58.755Z,2.20
2019-06-27T20:28:28.443Z,1.80
2019-06-27T20:30:59.189Z,1.63
2019-06-27T20:33:28.841Z,2.47
2019-06-27T20:35:58.922Z,1.63
2019-06-27T20:38:34.761Z,2.00
2019-06-27T20:41:00.449Z,2.07
2019-06-27T20:43:30.114Z,1.97
2019-06-27T20:45:59.791Z,1.70
2019-06-27T20:48:29.456Z,2.20
2019-06-27T20:50:59.123Z,2.10
2019-06-27T20:53:29.154Z,1.90
2019-06-27T20:55:59.103Z,1.87
2019-06-27T20:58:28.759Z,1.77
2019-06-27T21:00:58.428Z,1.70
2019-06-27T21:03:28.434Z,2.10
2019-06-27T21:05:58.476Z,2.20
2019-06-27T21:08:28.205Z,2.10
2019-06-27T21:10:57.879Z,1.90
2019-06-27T21:13:27.787Z,2.00
2019-06-27T21:15:57.453Z,2.00
2019-06-27T21:18:27.375Z,2.47
2019-06-27T21:20:57.047Z,2.10
2019-06-27T21:23:27.053Z,1.83
2019-06-27T21:25:56.733Z,2.20
2019-06-27T21:28:26.471Z,2.07
2019-06-27T21:30:56.131Z,2.13
2019-06-27T21:33:25.783Z,2.10
2019-06-27T21:35:55.747Z,2.33
2019-06-27T21:38:25.422Z,2.10
2019-06-27T21:40:55.177Z,2.20
2019-06-27T21:43:24.820Z,2.33
2019-06-27T21:45:54.557Z,2.30
2019-06-27T21:48:24.206Z,2.00
2019-06-27T21:50:53.965Z,2.33
2019-06-27T21:53:23.689Z,2.20
2019-06-27T21:55:53.349Z,2.07
2019-06-27T21:58:23.178Z,2.10
2019-06-27T22:00:54.281Z,2.33
2019-06-27T22:03:24.143Z,1.70
2019-06-27T22:05:53.889Z,2.17
2019-06-27T22:08:23.567Z,1.77
2019-06-27T22:10:53.253Z,2.10
2019-06-27T22:13:23.078Z,2.30
2019-06-27T22:15:52.745Z,2.40
2019-06-27T22:18:22.403Z,1.93
2019-06-27T22:20:52.068Z,2.20
2019-06-27T22:23:22.092Z,2.10
2019-06-27T22:25:51.772Z,2.00
2019-06-27T22:28:21.495Z,2.13
2019-06-27T22:30:51.167Z,2.20
2019-06-27T22:33:20.900Z,2.20
2019-06-27T22:35:50.887Z,2.20
2019-06-27T22:38:38.441Z,2.17
2019-06-27T22:41:26.199Z,2.10
2019-06-27T22:44:13.591Z,2.00
2019-06-27T22:47:01.498Z,2.37
2019-06-27T22:49:31.091Z,2.20
2019-06-27T22:52:15.786Z,1.93
2019-06-27T22:54:46.631Z,1.87
2019-06-27T22:57:16.292Z,2.00
2019-06-27T22:59:46.008Z,2.20
2019-06-27T23:02:15.670Z,2.10
2019-06-27T23:04:45.320Z,2.13
2019-06-27T23:07:15.009Z,2.23
2019-06-27T23:09:56.579Z,2.40
2019-06-27T23:12:16.016Z,2.53
2019-06-27T23:14:46.177Z,2.70
2019-06-27T23:17:15.848Z,2.60
2019-06-27T23:19:45.499Z,2.33
2019-06-27T23:22:15.599Z,2.73
2019-06-27T23:24:45.204Z,2.90
2019-06-27T23:27:14.876Z,2.33
2019-06-27T23:29:44.547Z,2.67
2019-06-27T23:32:14.651Z,2.27
2019-06-27T23:34:44.303Z,2.53
2019-06-27T23:37:14.021Z,2.93
2019-06-27T23:39:43.683Z,2.50
2019-06-27T23:42:13.665Z,2.20
2019-06-27T23:44:43.322Z,2.10
2019-06-27T23:47:12.983Z,2.30
2019-06-27T23:49:42.647Z,2.67
2019-06-27T23:52:12.300Z,2.53
2019-06-27T23:54:41.960Z,2.40
2019-06-27T23:57:11.606Z,2.50
2019-06-27T23:59:41.549Z,2.60
